createdAt,value
2024-02-03T00:02:23.408Z,61.45
2024-02-03T00:04:51.921Z,62.51
2024-02-03T00:07:20.281Z,64.49
2024-02-03T00:09:49.282Z,64.54
2024-02-03T00:12:20.848Z,63.65
2024-02-03T00:14:52.154Z,63.98
2024-02-03T00:17:20.743Z,63.82
2024-02-03T00:19:49.246Z,62.93
2024-02-03T00:22:18.082Z,61.99
2024-02-03T00:24:47.419Z,61.84
2024-02-03T00:27:16.435Z,61.97
2024-02-03T00:29:44.615Z,62.64
2024-02-03T00:32:12.951Z,63.01
2024-02-03T00:34:45.745Z,62.69
2024-02-03T00:37:14.416Z,61.29
2024-02-03T00:39:43.763Z,61.37
2024-02-03T00:42:12.468Z,61.00
2024-02-03T00:44:41.078Z,60.23
2024-02-03T00:47:09.382Z,60.50
2024-02-03T00:49:37.955Z,60.23
2024-02-03T00:52:06.907Z,59.99
2024-02-03T00:54:35.335Z,58.58
2024-02-03T00:57:04.150Z,59.15
2024-02-03T00:59:32.375Z,59.44
2024-02-03T01:02:00.524Z,58.51
2024-02-03T01:04:28.756Z,58.35
2024-02-03T01:06:58.764Z,57.63
2024-02-03T01:09:27.218Z,57.44
2024-02-03T01:11:56.299Z,57.73
2024-02-03T01:14:24.916Z,57.45
2024-02-03T01:16:53.434Z,57.54
2024-02-03T01:19:22.011Z,57.72
2024-02-03T01:21:50.466Z,59.36
2024-02-03T01:24:18.917Z,60.26
2024-02-03T01:26:47.590Z,61.25
2024-02-03T01:29:16.027Z,61.75
2024-02-03T01:31:44.134Z,61.84
2024-02-03T01:34:12.610Z,62.60
2024-02-03T01:36:41.341Z,62.42
2024-02-03T01:39:11.340Z,61.81
2024-02-03T01:41:39.582Z,61.40
2024-02-03T01:44:07.989Z,60.79
2024-02-03T01:46:37.042Z,60.07
2024-02-03T01:49:05.640Z,60.81
2024-02-03T01:51:35.444Z,61.99
2024-02-03T01:54:04.461Z,60.61
2024-02-03T01:56:37.250Z,60.85
2024-02-03T01:59:05.513Z,60.93
2024-02-03T02:01:34.045Z,60.08
2024-02-03T02:04:02.479Z,60.64
2024-02-03T02:06:31.443Z,60.53
2024-02-03T02:08:59.954Z,60.54
2024-02-03T02:11:29.063Z,60.36
2024-02-03T02:13:57.380Z,60.76
2024-02-03T02:16:26.203Z,61.14
2024-02-03T02:18:54.643Z,61.91
2024-02-03T02:21:23.016Z,63.61
2024-02-03T02:23:51.347Z,63.93
2024-02-03T02:26:19.770Z,63.28
2024-02-03T02:28:47.944Z,63.00
2024-02-03T02:31:16.426Z,61.88
2024-02-03T02:33:44.736Z,61.45
2024-02-03T02:36:13.031Z,60.43
2024-02-03T02:38:41.116Z,59.80
2024-02-03T02:41:12.646Z,58.88
2024-02-03T02:43:41.118Z,58.37
2024-02-03T02:46:09.406Z,57.72
2024-02-03T02:48:37.758Z,56.99
2024-02-03T02:51:06.033Z,56.36
2024-02-03T02:53:34.382Z,56.71
2024-02-03T02:56:02.477Z,57.88
2024-02-03T02:58:30.840Z,58.29
2024-02-03T03:00:59.134Z,58.70
2024-02-03T03:03:27.622Z,58.76
2024-02-03T03:05:58.637Z,58.39
2024-02-03T03:08:27.175Z,58.45
2024-02-03T03:10:55.385Z,57.75
2024-02-03T03:13:23.416Z,57.53
2024-02-03T03:15:51.936Z,58.02
2024-02-03T03:18:20.284Z,57.50
2024-02-03T03:20:48.782Z,56.73
2024-02-03T03:23:17.088Z,57.08
2024-02-03T03:25:45.256Z,58.26
2024-02-03T03:28:13.438Z,59.73
2024-02-03T03:30:41.561Z,60.35
2024-02-03T03:33:10.198Z,59.72
2024-02-03T03:35:38.552Z,59.94
2024-02-03T03:38:08.086Z,60.12
2024-02-03T03:40:36.280Z,59.37
2024-02-03T03:43:08.204Z,59.54
2024-02-03T03:45:36.736Z,59.40
2024-02-03T03:48:05.436Z,59.27
2024-02-03T03:50:33.644Z,59.49
2024-02-03T03:53:01.744Z,59.15
2024-02-03T03:55:30.420Z,58.19
2024-02-03T03:57:58.563Z,59.80
2024-02-03T04:00:26.970Z,60.73
2024-02-03T04:02:55.437Z,60.85
2024-02-03T04:05:23.757Z,61.91
2024-02-03T04:07:52.171Z,60.72
2024-02-03T04:10:20.681Z,59.37
2024-02-03T04:12:49.072Z,59.27
2024-02-03T04:15:17.462Z,59.78
2024-02-03T04:17:45.773Z,60.74
2024-02-03T04:20:14.127Z,62.43
2024-02-03T04:22:42.614Z,61.32
2024-02-03T04:25:10.736Z,61.40
2024-02-03T04:27:39.005Z,61.21
2024-02-03T04:30:21.964Z,61.68
2024-02-03T04:32:55.978Z,61.89
2024-02-03T04:35:24.603Z,61.99
2024-02-03T04:37:52.711Z,61.91
2024-02-03T04:40:21.019Z,61.41
2024-02-03T04:42:49.434Z,60.72
2024-02-03T04:45:17.931Z,60.62
2024-02-03T04:47:46.579Z,60.83
2024-02-03T04:50:15.099Z,60.35
2024-02-03T04:52:43.295Z,60.06
2024-02-03T04:55:11.755Z,59.51
2024-02-03T04:57:40.115Z,59.61
2024-02-03T05:00:10.138Z,59.80
2024-02-03T05:02:39.891Z,59.84
2024-02-03T05:05:08.439Z,59.55
2024-02-03T05:07:36.687Z,58.50
2024-02-03T05:10:08.568Z,57.56
2024-02-03T05:12:36.830Z,59.49
2024-02-03T05:15:06.113Z,60.48
2024-02-03T05:17:34.785Z,61.09
2024-02-03T05:20:03.513Z,61.55
2024-02-03T05:22:31.858Z,61.75
2024-02-03T05:25:00.288Z,62.46
2024-02-03T05:27:28.770Z,61.90
2024-02-03T05:29:56.977Z,61.35
2024-02-03T05:32:25.186Z,60.51
2024-02-03T05:34:53.671Z,59.89
2024-02-03T05:37:22.262Z,60.81
2024-02-03T05:39:50.511Z,61.08
2024-02-03T05:42:22.256Z,60.37
2024-02-03T05:44:52.298Z,59.97
2024-02-03T05:47:20.672Z,59.66
2024-02-03T05:49:49.322Z,59.72
2024-02-03T05:52:17.737Z,59.28
2024-02-03T05:54:46.356Z,58.74
2024-02-03T05:57:14.633Z,58.15
2024-02-03T05:59:50.924Z,58.39
2024-02-03T06:02:21.514Z,58.49
2024-02-03T06:04:51.383Z,58.45
2024-02-03T06:07:20.432Z,58.42
2024-02-03T06:09:48.817Z,58.57
2024-02-03T06:12:16.936Z,59.09
2024-02-03T06:14:45.649Z,59.38
2024-02-03T06:17:14.676Z,59.51
2024-02-03T06:19:44.951Z,60.60
2024-02-03T06:22:13.328Z,61.52
2024-02-03T06:24:41.653Z,61.81
2024-02-03T06:27:10.337Z,61.51
2024-02-03T06:29:38.882Z,60.54
2024-02-03T06:32:07.582Z,60.10
2024-02-03T06:34:36.264Z,61.70
2024-02-03T06:37:05.719Z,62.36
2024-02-03T06:39:33.925Z,62.32
2024-02-03T06:42:02.849Z,61.42
2024-02-03T06:44:31.497Z,60.71
2024-02-03T06:46:59.856Z,60.45
2024-02-03T06:49:28.746Z,61.66
2024-02-03T06:51:57.297Z,61.24
2024-02-03T06:54:25.546Z,60.08
2024-02-03T06:56:53.821Z,60.41
2024-02-03T06:59:22.188Z,59.43
2024-02-03T07:01:51.876Z,59.00
2024-02-03T07:04:20.873Z,61.18
2024-02-03T07:06:49.183Z,61.49
2024-02-03T07:09:17.642Z,61.87
2024-02-03T07:11:56.640Z,61.66
2024-02-03T07:14:31.840Z,61.19
2024-02-03T07:17:00.096Z,61.37
2024-02-03T07:19:29.624Z,62.05
2024-02-03T07:21:58.105Z,61.75
2024-02-03T07:24:26.560Z,61.20
2024-02-03T07:26:54.776Z,60.66
2024-02-03T07:29:23.194Z,60.55
2024-02-03T07:31:59.814Z,60.14
2024-02-03T07:34:28.665Z,59.38
2024-02-03T07:36:57.737Z,59.19
2024-02-03T07:39:26.198Z,59.80
2024-02-03T07:41:54.523Z,61.27
2024-02-03T07:44:22.770Z,62.97
2024-02-03T07:46:50.989Z,64.99
2024-02-03T07:49:19.170Z,64.19
2024-02-03T07:51:47.497Z,62.20
2024-02-03T07:54:15.987Z,61.33
2024-02-03T07:56:44.643Z,61.70
2024-02-03T07:59:12.749Z,62.02
2024-02-03T08:04:09.701Z,60.62
2024-02-03T08:06:38.297Z,60.77
2024-02-03T08:09:06.666Z,60.65
2024-02-03T08:11:35.011Z,61.41
2024-02-03T08:14:03.301Z,60.89
2024-02-03T08:16:31.665Z,60.69
2024-02-03T08:19:00.113Z,60.59
2024-02-03T08:21:29.083Z,59.82
2024-02-03T08:23:57.567Z,58.63
2024-02-03T08:26:25.711Z,58.63
2024-02-03T08:28:53.865Z,58.04
2024-02-03T08:31:22.056Z,58.17
2024-02-03T08:33:50.421Z,58.03
2024-02-03T08:36:18.843Z,58.38
2024-02-03T08:38:47.266Z,57.45
2024-02-03T08:41:16.886Z,58.07
2024-02-03T08:43:45.589Z,57.79
2024-02-03T08:46:13.720Z,56.88
2024-02-03T08:48:41.944Z,57.39
2024-02-03T08:51:10.794Z,57.61
2024-02-03T08:53:38.981Z,58.47
2024-02-03T08:56:08.430Z,57.90
2024-02-03T08:58:36.868Z,58.58
2024-02-03T09:01:05.304Z,58.74
2024-02-03T09:03:33.565Z,58.60
2024-02-03T09:06:01.857Z,59.02
2024-02-03T09:08:30.046Z,58.13
2024-02-03T09:10:58.406Z,58.54
2024-02-03T09:13:27.264Z,58.47
2024-02-03T09:15:55.568Z,58.05
2024-02-03T09:18:24.229Z,56.99
2024-02-03T09:20:52.693Z,56.92
2024-02-03T09:23:20.781Z,56.99
2024-02-03T09:25:49.914Z,57.10
2024-02-03T09:28:18.655Z,56.51
2024-02-03T09:30:46.986Z,55.79
2024-02-03T09:33:15.248Z,55.57
2024-02-03T09:35:43.620Z,54.71
2024-02-03T09:38:12.512Z,54.69
2024-02-03T09:40:40.818Z,55.31
2024-02-03T09:43:10.765Z,55.20
2024-02-03T09:45:39.613Z,54.81
2024-02-03T09:48:08.588Z,54.48
2024-02-03T09:50:37.394Z,54.16
2024-02-03T09:53:05.690Z,53.45
2024-02-03T09:55:34.175Z,53.76
2024-02-03T09:58:03.320Z,54.07
2024-02-03T10:00:33.485Z,54.67
2024-02-03T10:03:02.775Z,53.70
2024-02-03T10:05:32.591Z,53.70
2024-02-03T10:08:06.296Z,53.92
2024-02-03T10:13:13.024Z,52.53
2024-02-03T10:15:41.642Z,51.95
2024-02-03T10:18:09.974Z,52.55
2024-02-03T10:20:38.790Z,52.18
2024-02-03T10:23:08.423Z,53.04
2024-02-03T10:25:37.197Z,54.20
2024-02-03T10:28:07.261Z,53.80
2024-02-03T10:30:37.804Z,53.49
2024-02-03T10:33:07.995Z,55.09
2024-02-03T10:35:37.785Z,55.10
2024-02-03T10:38:06.112Z,54.95
2024-02-03T10:40:35.432Z,54.15
2024-02-03T10:43:08.778Z,53.65
2024-02-03T10:45:39.560Z,53.55
2024-02-03T10:48:17.148Z,52.52
2024-02-03T10:50:50.951Z,52.32
2024-02-03T10:53:33.290Z,51.54
2024-02-03T10:56:06.291Z,51.11
2024-02-03T10:58:34.961Z,50.03
2024-02-03T11:01:22.693Z,50.81
2024-02-03T11:03:53.326Z,50.04
2024-02-03T11:06:33.363Z,48.70
2024-02-03T11:09:14.550Z,49.42
2024-02-03T11:11:45.705Z,49.07
2024-02-03T11:14:16.894Z,48.48
2024-02-03T11:17:02.399Z,47.88
2024-02-03T11:19:33.677Z,48.89
2024-02-03T11:22:03.774Z,48.27
2024-02-03T11:24:34.488Z,47.64
2024-02-03T11:27:08.462Z,47.52
2024-02-03T11:29:38.353Z,47.44
2024-02-03T11:32:08.859Z,47.17
2024-02-03T11:34:39.024Z,47.02
2024-02-03T11:37:08.120Z,47.01
2024-02-03T11:39:38.196Z,46.31
2024-02-03T11:42:08.901Z,46.22
2024-02-03T11:44:55.458Z,46.03
2024-02-03T11:47:24.160Z,45.75
2024-02-03T11:49:54.018Z,45.97
2024-02-03T11:52:26.160Z,46.24
2024-02-03T11:54:55.686Z,45.53
2024-02-03T11:57:24.416Z,44.89
2024-02-03T12:00:06.915Z,44.75
2024-02-03T12:02:36.462Z,45.19
2024-02-03T12:05:05.589Z,46.09
2024-02-03T12:07:35.014Z,46.14
2024-02-03T12:10:05.398Z,46.25
2024-02-03T12:12:36.286Z,46.71
2024-02-03T12:15:07.718Z,48.50
2024-02-03T12:17:36.571Z,48.78
2024-02-03T12:20:20.617Z,48.95
2024-02-03T12:22:49.671Z,49.00
2024-02-03T12:25:18.180Z,49.07
2024-02-03T12:27:47.014Z,49.29
2024-02-03T12:30:23.416Z,48.56
2024-02-03T12:32:52.479Z,48.05
2024-02-03T12:35:20.849Z,47.63
2024-02-03T12:37:49.112Z,47.20
2024-02-03T12:40:17.794Z,46.97
2024-02-03T12:42:46.328Z,46.74
2024-02-03T12:45:14.489Z,46.64
2024-02-03T12:47:43.469Z,47.74
2024-02-03T12:50:12.138Z,48.70
2024-02-03T12:52:40.643Z,49.09
2024-02-03T12:55:09.802Z,49.13
2024-02-03T12:57:38.958Z,49.44
2024-02-03T13:00:08.183Z,49.11
2024-02-03T13:02:36.314Z,49.14
2024-02-03T13:05:04.922Z,49.01
2024-02-03T13:07:33.097Z,49.61
2024-02-03T13:10:01.501Z,49.85
2024-02-03T13:12:30.063Z,49.69
2024-02-03T13:14:58.329Z,49.63
2024-02-03T13:17:27.934Z,49.42
2024-02-03T13:19:56.564Z,49.08
2024-02-03T13:22:25.268Z,48.66
2024-02-03T13:24:53.601Z,47.88
2024-02-03T13:27:22.102Z,47.77
2024-02-03T13:29:50.742Z,48.27
2024-02-03T13:32:18.924Z,47.75
2024-02-03T13:34:47.275Z,47.43
2024-02-03T13:37:16.557Z,47.20
2024-02-03T13:39:45.429Z,47.46
2024-02-03T13:42:14.648Z,46.85
2024-02-03T13:44:43.016Z,46.90
2024-02-03T13:47:11.602Z,47.18
2024-02-03T13:49:40.480Z,47.57
2024-02-03T13:52:09.541Z,47.93
2024-02-03T13:54:38.004Z,48.54
2024-02-03T13:57:06.387Z,49.07
2024-02-03T13:59:34.457Z,49.43
2024-02-03T14:02:03.099Z,49.26
2024-02-03T14:04:31.512Z,49.44
2024-02-03T14:07:02.963Z,49.37
2024-02-03T14:09:31.345Z,49.42
2024-02-03T14:11:59.966Z,49.24
2024-02-03T14:14:28.785Z,49.01
2024-02-03T14:16:56.928Z,49.17
2024-02-03T14:19:25.602Z,49.52
2024-02-03T14:21:54.449Z,49.89
2024-02-03T14:24:23.777Z,50.41
2024-02-03T14:26:51.921Z,51.08
2024-02-03T14:29:21.761Z,51.93
2024-02-03T14:31:49.868Z,52.63
2024-02-03T14:34:18.580Z,53.14
2024-02-03T14:36:47.173Z,53.36
2024-02-03T14:39:20.380Z,54.09
2024-02-03T14:41:49.042Z,55.06
2024-02-03T14:44:17.829Z,55.93
2024-02-03T14:46:46.388Z,56.92
2024-02-03T14:49:14.734Z,57.75
2024-02-03T14:51:43.767Z,59.20
2024-02-03T14:54:13.225Z,60.66
2024-02-03T14:56:41.644Z,60.74
2024-02-03T14:59:09.956Z,61.60
2024-02-03T15:01:38.154Z,61.46
2024-02-03T15:04:08.901Z,61.64
2024-02-03T15:06:38.529Z,62.45
2024-02-03T15:09:09.108Z,62.79
2024-02-03T15:11:37.495Z,62.69
2024-02-03T15:14:05.915Z,62.67
2024-02-03T15:16:34.135Z,62.85
2024-02-03T15:19:02.670Z,63.00
2024-02-03T15:21:31.340Z,63.41
2024-02-03T15:23:59.689Z,63.30
2024-02-03T15:26:27.922Z,63.54
2024-02-03T15:28:56.460Z,63.79
2024-02-03T15:31:26.925Z,64.35
2024-02-03T15:33:55.322Z,64.18
2024-02-03T15:36:23.666Z,63.45
2024-02-03T15:38:52.102Z,64.21
2024-02-03T15:41:20.588Z,64.21
2024-02-03T15:43:49.024Z,64.32
2024-02-03T15:46:18.130Z,64.91
2024-02-03T15:48:46.786Z,64.25
2024-02-03T15:51:14.992Z,64.83
2024-02-03T15:53:43.175Z,65.73
2024-02-03T15:56:11.389Z,66.85
2024-02-03T15:58:39.936Z,68.04
2024-02-03T16:01:08.186Z,68.11
2024-02-03T16:03:37.370Z,67.68
2024-02-03T16:06:06.501Z,67.37
2024-02-03T16:08:34.689Z,68.46
2024-02-03T16:11:03.249Z,69.21
2024-02-03T16:13:31.400Z,68.73
2024-02-03T16:16:00.075Z,68.51
2024-02-03T16:18:28.863Z,67.94
2024-02-03T16:20:57.148Z,68.87
2024-02-03T16:23:25.343Z,69.06
2024-02-03T16:25:53.784Z,69.50
2024-02-03T16:28:21.959Z,69.39
2024-02-03T16:30:50.299Z,70.25
2024-02-03T16:33:19.126Z,70.80
2024-02-03T16:35:47.972Z,69.83
2024-02-03T16:38:16.390Z,69.10
2024-02-03T16:40:44.624Z,68.32
2024-02-03T16:43:13.980Z,67.43
2024-02-03T16:45:43.399Z,66.74
2024-02-03T16:48:11.889Z,70.27
2024-02-03T16:50:50.426Z,73.56
2024-02-03T16:53:18.589Z,74.03
2024-02-03T16:55:47.038Z,75.00
2024-02-03T16:58:15.565Z,74.61
2024-02-03T17:00:51.492Z,74.19
2024-02-03T17:03:19.864Z,73.73
2024-02-03T17:05:49.430Z,72.98
2024-02-03T17:08:19.299Z,71.58
2024-02-03T17:10:48.029Z,70.19
2024-02-03T17:13:16.125Z,69.41
2024-02-03T17:15:44.406Z,68.95
2024-02-03T17:18:12.593Z,68.54
2024-02-03T17:20:41.207Z,68.09
2024-02-03T17:23:09.666Z,67.86
2024-02-03T17:25:38.155Z,67.32
2024-02-03T17:28:06.959Z,66.76
2024-02-03T17:30:36.712Z,66.53
2024-02-03T17:33:05.401Z,65.82
2024-02-03T17:35:34.032Z,64.99
2024-02-03T17:38:02.271Z,64.42
2024-02-03T17:40:30.686Z,64.00
2024-02-03T17:43:05.821Z,63.99
2024-02-03T17:45:34.046Z,64.39
2024-02-03T17:48:02.318Z,64.26
2024-02-03T17:50:32.108Z,64.06
2024-02-03T17:53:01.637Z,64.32
2024-02-03T17:55:32.524Z,64.44
2024-02-03T17:58:00.766Z,63.50
2024-02-03T18:00:29.022Z,62.94
2024-02-03T18:02:57.173Z,61.82
2024-02-03T18:05:25.631Z,61.88
2024-02-03T18:07:53.838Z,63.97
2024-02-03T18:10:21.926Z,65.16
2024-02-03T18:12:50.617Z,65.26
2024-02-03T18:15:20.921Z,65.03
2024-02-03T18:17:49.261Z,66.34
2024-02-03T18:20:19.756Z,67.09
2024-02-03T18:22:48.668Z,67.98
2024-02-03T18:25:17.807Z,68.57
2024-02-03T18:27:46.305Z,69.86
2024-02-03T18:30:15.306Z,68.83
2024-02-03T18:32:45.313Z,67.84
2024-02-03T18:35:13.733Z,67.52
2024-02-03T18:37:41.846Z,68.09
2024-02-03T18:40:10.935Z,67.13
2024-02-03T18:42:43.901Z,65.71
2024-02-03T18:45:13.542Z,64.78
2024-02-03T18:47:42.193Z,64.00
2024-02-03T18:50:10.844Z,63.02
2024-02-03T18:52:39.330Z,64.27
2024-02-03T18:55:08.131Z,64.06
2024-02-03T18:57:37.543Z,63.13
2024-02-03T19:00:08.012Z,62.68
2024-02-03T19:02:36.254Z,63.97
2024-02-03T19:05:05.138Z,63.53
2024-02-03T19:07:33.458Z,62.72
2024-02-03T19:10:02.027Z,64.08
2024-02-03T19:12:31.288Z,65.64
2024-02-03T19:14:59.396Z,67.04
2024-02-03T19:17:27.847Z,67.12
2024-02-03T19:19:56.615Z,65.85
2024-02-03T19:22:26.519Z,64.59
2024-02-03T19:24:54.971Z,64.04
2024-02-03T19:27:23.385Z,63.41
2024-02-03T19:29:51.500Z,63.10
2024-02-03T19:32:19.640Z,63.46
2024-02-03T19:34:48.656Z,62.94
2024-02-03T19:37:17.086Z,62.42
2024-02-03T19:39:54.860Z,63.09
2024-02-03T19:42:22.986Z,62.82
2024-02-03T19:44:51.300Z,62.64
2024-02-03T19:47:19.570Z,63.81
2024-02-03T19:49:48.079Z,64.35
2024-02-03T19:52:16.603Z,63.06
2024-02-03T19:54:45.320Z,63.19
2024-02-03T19:57:13.454Z,63.13
2024-02-03T19:59:41.735Z,62.95
2024-02-03T20:02:10.138Z,62.47
2024-02-03T20:04:39.990Z,63.37
2024-02-03T20:07:12.634Z,65.53
2024-02-03T20:09:41.484Z,66.30
2024-02-03T20:12:09.958Z,66.81
2024-02-03T20:14:40.017Z,66.19
2024-02-03T20:17:08.311Z,65.23
2024-02-03T20:19:36.739Z,65.31
2024-02-03T20:22:05.181Z,64.96
2024-02-03T20:24:36.183Z,64.82
2024-02-03T20:27:05.552Z,63.95
2024-02-03T20:29:33.919Z,64.43
2024-02-03T20:32:03.079Z,65.19
2024-02-03T20:34:31.453Z,65.25
2024-02-03T20:37:01.138Z,64.95
2024-02-03T20:39:29.712Z,65.24
2024-02-03T20:41:57.919Z,65.18
2024-02-03T20:44:26.491Z,64.41
2024-02-03T20:46:56.533Z,63.78
2024-02-03T20:49:27.105Z,63.57
2024-02-03T20:51:55.371Z,63.27
2024-02-03T20:54:23.561Z,63.18
2024-02-03T20:56:51.962Z,62.60
2024-02-03T20:59:20.287Z,62.38
2024-02-03T21:01:48.642Z,62.32
2024-02-03T21:04:17.473Z,62.29
2024-02-03T21:06:46.393Z,62.31
2024-02-03T21:09:15.944Z,62.15
2024-02-03T21:11:48.285Z,62.57
2024-02-03T21:14:17.170Z,63.06
2024-02-03T21:16:45.422Z,62.61
2024-02-03T21:19:14.222Z,62.17
2024-02-03T21:21:43.286Z,62.48
2024-02-03T21:24:11.740Z,62.51
2024-02-03T21:26:40.529Z,62.54
2024-02-03T21:29:08.601Z,62.60
2024-02-03T21:31:37.101Z,62.11
2024-02-03T21:34:05.485Z,62.45
2024-02-03T21:36:33.640Z,62.58
2024-02-03T21:39:02.095Z,62.09
2024-02-03T21:41:30.293Z,62.83
2024-02-03T21:43:58.933Z,63.28
2024-02-03T21:46:27.336Z,63.21
2024-02-03T21:48:55.690Z,63.40
2024-02-03T21:51:24.286Z,63.50
2024-02-03T21:53:52.549Z,63.35
2024-02-03T21:56:21.903Z,62.70
2024-02-03T21:58:50.165Z,62.40
2024-02-03T22:01:18.996Z,62.22
2024-02-03T22:03:49.589Z,62.05
2024-02-03T22:06:23.696Z,62.21
2024-02-03T22:08:52.225Z,62.56
2024-02-03T22:11:20.629Z,62.84
2024-02-03T22:13:49.259Z,62.48
2024-02-03T22:16:17.398Z,62.64
2024-02-03T22:18:46.231Z,62.51
2024-02-03T22:21:15.535Z,62.70
2024-02-03T22:23:45.480Z,63.20
2024-02-03T22:26:15.194Z,64.45
2024-02-03T22:28:43.471Z,63.89
2024-02-03T22:31:12.009Z,63.53
2024-02-03T22:33:40.237Z,64.07
2024-02-03T22:36:09.745Z,65.40
2024-02-03T22:38:38.056Z,67.59
2024-02-03T22:41:06.228Z,68.57
2024-02-03T22:43:34.568Z,68.91
2024-02-03T22:46:03.347Z,68.32
2024-02-03T22:48:31.906Z,67.39
2024-02-03T22:51:00.642Z,67.22
2024-02-03T22:53:29.195Z,66.55
2024-02-03T22:55:57.594Z,66.85
2024-02-03T22:58:25.851Z,66.63
2024-02-03T23:00:57.505Z,66.54
2024-02-03T23:03:25.883Z,65.82
2024-02-03T23:05:54.758Z,66.14
2024-02-03T23:08:23.090Z,68.03
2024-02-03T23:10:51.286Z,68.91
2024-02-03T23:13:19.817Z,70.24
2024-02-03T23:15:49.641Z,69.61
2024-02-03T23:18:18.319Z,69.59
2024-02-03T23:20:46.894Z,69.48
2024-02-03T23:23:15.592Z,70.32
2024-02-03T23:25:43.889Z,70.29
2024-02-03T23:28:12.140Z,70.00
2024-02-03T23:30:40.316Z,70.97
2024-02-03T23:33:08.730Z,70.57
2024-02-03T23:35:37.556Z,69.35
2024-02-03T23:38:05.778Z,69.09
2024-02-03T23:40:34.310Z,68.12
2024-02-03T23:43:02.623Z,67.35
2024-02-03T23:45:30.860Z,68.65
2024-02-03T23:47:59.352Z,69.57
2024-02-03T23:50:27.928Z,70.84
2024-02-03T23:52:56.568Z,71.52
2024-02-03T23:55:24.937Z,72.47
2024-02-03T23:57:53.294Z,71.98
